Time;durP1;ratioP1;P1;durP2;ratioP2;P2;SDS_P1;SDS_P2;PMS_P1;PMS_P2;Temp;Humidity;BMP_temperature;BMP_pressure;BME280_temperature;BME280_humidity;BME280_pressure;Samples;Min_cycle;Max_cycle;Signal;HPM_P1;HPM_P2
2021/04/15 00:01:25;;;;;;;;;6.00;6.00;;;;;27.65;59.11;98797.75;4991232;28;9081;-73
2021/04/15 00:04:00;;;;;;;;;6.75;6.75;;;;;27.58;60.39;98795.75;4991711;28;8824;-74
2021/04/15 00:06:30;;;;;;;;;9.75;9.75;;;;;27.61;60.03;98800.44;4991680;28;8820;-73
2021/04/15 00:09:05;;;;;;;;;12.25;12.25;;;;;27.67;60.37;98816.34;4983177;28;8856;-73
2021/04/15 00:11:34;;;;;;;;;7.00;7.00;;;;;27.75;60.46;98826.06;4982800;28;8912;-73
2021/04/15 00:14:04;;;;;;;;;11.75;11.75;;;;;27.71;60.25;98819.84;4977893;28;8870;-73
2021/04/15 00:16:33;;;;;;;;;8.75;8.75;;;;;27.80;59.26;98839.25;4965449;28;8858;-73
2021/04/15 00:19:03;;;;;;;;;8.75;8.75;;;;;27.79;60.18;98840.41;4979342;28;8969;-73
2021/04/15 00:21:31;;;;;;;;;7.50;7.50;;;;;27.82;58.36;98840.44;4977493;28;8954;-72
2021/04/15 00:23:59;;;;;;;;;7.00;7.00;;;;;27.79;57.99;98838.47;4987447;28;8847;-73
2021/04/15 00:26:28;;;;;;;;;7.25;7.25;;;;;27.84;57.89;98846.25;4984154;28;8934;-74
2021/04/15 00:28:58;;;;;;;;;9.00;9.00;;;;;27.87;58.46;98852.84;4982606;28;8827;-73
2021/04/15 00:31:28;;;;;;;;;9.00;9.00;;;;;27.82;59.51;98856.69;4976721;28;8869;-73
2021/04/15 00:33:58;;;;;;;;;6.00;6.00;;;;;27.89;58.13;98866.81;4980810;28;8830;-73
2021/04/15 00:36:27;;;;;;;;;8.75;8.75;;;;;27.84;59.50;98859.81;4981353;28;8878;-73
2021/04/15 00:38:56;;;;;;;;;8.25;8.25;;;;;27.96;60.37;98874.19;4982032;28;8850;-73
2021/04/15 00:41:25;;;;;;;;;12.25;12.25;;;;;27.90;60.52;98874.56;4984856;28;8816;-76
2021/04/15 00:43:53;;;;;;;;;10.75;10.75;;;;;28.00;60.30;98880.44;4985619;28;8860;-77
2021/04/15 00:46:51;;;;;;;;;12.75;11.00;;;;;28.02;59.74;98881.59;4984343;28;8856;-75
2021/04/15 00:49:42;;;;;;;;;9.00;9.00;;;;;27.99;59.70;98878.88;4983989;28;9598;-74
2021/04/15 00:52:15;;;;;;;;;12.75;12.75;;;;;28.05;60.23;98880.06;4983348;28;8879;-76
2021/04/15 00:54:50;;;;;;;;;10.50;10.50;;;;;28.06;60.08;98887.81;4984510;28;8852;-76
2021/04/15 00:57:24;;;;;;;;;8.00;8.00;;;;;28.09;60.07;98886.28;4985528;28;8816;-77
2021/04/15 00:59:54;;;;;;;;;11.25;11.25;;;;;28.07;60.71;98888.59;4985643;28;8836;-75
2021/04/15 01:02:24;;;;;;;;;6.75;6.75;;;;;28.08;59.83;98890.16;4985195;28;8934;-74
2021/04/15 01:04:58;;;;;;;;;7.25;7.25;;;;;28.14;59.23;98897.53;4987178;28;8852;-74
2021/04/15 01:07:27;;;;;;;;;9.50;9.50;;;;;28.09;59.03;98883.56;4985385;28;8840;-73
2021/04/15 01:09:55;;;;;;;;;10.75;10.75;;;;;27.98;59.37;98867.25;4986796;28;9002;-76
2021/04/15 01:12:50;;;;;;;;;8.00;8.00;;;;;28.24;58.07;98902.28;4982807;28;8863;-74
2021/04/15 01:15:42;;;;;;;;;13.50;13.50;;;;;28.28;58.60;98902.28;4985358;28;9544;-74
2021/04/15 01:18:31;;;;;;;;;8.50;8.50;;;;;28.31;58.54;98906.97;4985941;28;8828;-73
2021/04/15 01:21:31;;;;;;;;;4.25;4.25;;;;;28.35;58.97;98912.41;4986819;28;8832;-73
2021/04/15 01:24:16;;;;;;;;;9.25;9.25;;;;;28.37;58.38;98918.22;4969516;28;8942;-74
2021/04/15 01:27:08;;;;;;;;;5.75;5.75;;;;;28.39;58.20;98916.69;4988254;28;8852;-74
2021/04/15 01:29:59;;;;;;;;;7.25;7.25;;;;;28.33;57.86;98899.22;4988782;28;8864;-75
2021/04/15 01:32:36;;;;;;;;;7.00;7.00;;;;;28.30;57.28;98891.06;4969310;28;8854;-72
2021/04/15 01:35:33;;;;;;;;;9.25;9.25;;;;;28.52;57.09;98928.75;4984159;28;8861;-72
2021/04/15 01:38:24;;;;;;;;;6.00;6.00;;;;;28.54;57.36;98922.94;4974121;28;8862;-72
2021/04/15 01:41:08;;;;;;;;;8.00;8.00;;;;;28.57;57.24;98925.69;4986108;28;8847;-73
2021/04/15 01:43:44;;;;;;;;;8.75;8.75;;;;;28.68;57.64;98935.75;4988788;28;8832;-72
2021/04/15 01:46:12;;;;;;;;;8.00;7.75;;;;;28.71;57.09;98938.50;4992244;28;8860;-72
2021/04/15 01:48:45;;;;;;;;;8.50;8.50;;;;;28.77;57.07;98944.31;4993489;28;9857;-72
2021/04/15 01:51:18;;;;;;;;;7.75;7.75;;;;;28.83;57.10;98948.25;4992838;28;8864;-73
2021/04/15 01:54:08;;;;;;;;;8.25;8.25;;;;;28.87;56.87;98951.75;4974543;28;8890;-72
2021/04/15 01:57:00;;;;;;;;;9.25;9.00;;;;;28.93;56.93;98952.94;4990922;28;8914;-73
2021/04/15 01:59:56;;;;;;;;;7.75;7.75;;;;;28.97;57.01;98959.16;4993259;28;8855;-72
2021/04/15 02:02:35;;;;;;;;;5.50;5.50;;;;;29.03;55.84;98968.50;4992842;28;8844;-72
2021/04/15 02:05:28;;;;;;;;;6.00;6.00;;;;;29.08;56.02;98967.34;4990661;28;8848;-73
2021/04/15 02:08:13;;;;;;;;;7.25;7.25;;;;;29.13;56.04;98969.69;4986282;28;8888;-72
2021/04/15 02:10:45;;;;;;;;;2.75;2.75;;;;;29.13;54.63;98964.25;4981514;28;8930;-74
2021/04/15 02:13:17;;;;;;;;;6.50;6.50;;;;;29.22;55.41;98957.28;4979987;28;8880;-74
2021/04/15 02:15:53;;;;;;;;;6.25;6.25;;;;;29.28;56.28;98962.31;4987361;28;8850;-73
2021/04/15 02:18:35;;;;;;;;;8.75;8.75;;;;;29.35;55.30;98967.78;4988474;28;8851;-73
2021/04/15 02:21:35;;;;;;;;;5.00;5.00;;;;;29.43;55.36;98963.94;4985516;28;8886;-72
2021/04/15 02:24:42;;;;;;;;;6.00;6.00;;;;;29.50;55.05;98955.78;4985690;28;9663;-72
2021/04/15 02:27:36;;;;;;;;;8.00;8.00;;;;;29.64;54.38;98960.44;4981394;28;8839;-71
2021/04/15 02:30:23;;;;;;;;;7.50;7.50;;;;;29.71;54.71;98963.94;4986068;28;8859;-73
2021/04/15 02:33:03;;;;;;;;;7.50;7.50;;;;;29.76;54.53;98954.63;4991117;28;8868;-72
2021/04/15 02:35:43;;;;;;;;;7.25;7.25;;;;;29.77;54.24;98948.78;4989742;28;8863;-73
2021/04/15 02:38:12;;;;;;;;;9.75;9.75;;;;;29.93;53.96;98959.22;4987143;28;8846;-71
2021/04/15 02:40:49;;;;;;;;;7.25;7.25;;;;;29.99;54.26;98959.63;4974469;28;9917;-71
2021/04/15 02:43:30;;;;;;;;;7.25;7.25;;;;;30.08;53.83;98965.47;4992360;28;8847;-72
2021/04/15 02:46:06;;;;;;;;;9.25;9.25;;;;;30.10;53.22;98961.19;4973480;28;8828;-72
2021/04/15 02:48:38;;;;;;;;;6.75;6.75;;;;;30.14;53.22;98955.72;4984012;28;8832;-72
2021/04/15 02:51:11;;;;;;;;;7.00;7.00;;;;;30.14;53.26;98956.50;4987729;28;8838;-72
2021/04/15 02:53:53;;;;;;;;;7.25;7.25;;;;;30.16;53.45;98954.16;4984695;28;8840;-73
2021/04/15 02:56:31;;;;;;;;;6.00;6.00;;;;;30.10;53.01;98941.34;4987138;28;8852;-72
2021/04/15 02:59:07;;;;;;;;;10.25;10.25;;;;;30.14;53.33;98944.84;4990331;28;8954;-73
2021/04/15 03:01:41;;;;;;;;;8.50;8.50;;;;;30.13;53.14;98935.91;4993107;28;8971;-73
2021/04/15 03:04:16;;;;;;;;;8.00;8.00;;;;;30.19;53.46;98939.00;4993382;28;8828;-74
2021/04/15 03:06:47;;;;;;;;;5.00;5.00;;;;;30.15;52.96;98933.56;4989843;28;8828;-72
2021/04/15 03:09:18;;;;;;;;;8.00;8.00;;;;;30.26;52.83;98935.50;4989347;28;8856;-74
2021/04/15 03:11:52;;;;;;;;;7.00;7.00;;;;;30.29;52.83;98927.31;4988562;28;8930;-74
2021/04/15 03:14:50;;;;;;;;;7.75;7.75;;;;;30.32;53.07;98925.75;4989962;28;8848;-71
2021/04/15 03:17:22;;;;;;;;;6.50;6.50;;;;;30.40;52.77;98930.00;4991001;28;8914;-72
2021/04/15 03:19:57;;;;;;;;;7.25;7.25;;;;;30.42;52.88;98914.03;4990583;28;8824;-72
2021/04/15 03:22:40;;;;;;;;;6.50;6.50;;;;;30.36;51.82;98894.63;4988727;28;8840;-72
2021/04/15 03:25:09;;;;;;;;;7.50;7.50;;;;;30.62;52.09;98926.03;4989367;28;8828;-72
2021/04/15 03:27:54;;;;;;;;;7.00;7.00;;;;;30.69;51.69;98925.25;4970817;28;9558;-72
2021/04/15 03:30:38;;;;;;;;;6.50;6.50;;;;;30.75;51.59;98923.66;4986038;28;8856;-75
2021/04/15 03:33:12;;;;;;;;;6.75;5.75;;;;;30.82;51.64;98920.88;4989318;28;8921;-73
2021/04/15 03:35:55;;;;;;;;;6.25;6.25;;;;;30.91;50.89;98915.78;4989346;28;8824;-73
2021/04/15 03:38:31;;;;;;;;;5.25;5.25;;;;;30.95;52.01;98908.34;4989112;28;8918;-73
2021/04/15 03:41:12;;;;;;;;;8.00;8.00;;;;;30.95;51.00;98888.50;4986426;28;8851;-76
2021/04/15 03:43:56;;;;;;;;;5.25;5.25;;;;;31.10;51.25;98896.19;4986027;28;8840;-73
2021/04/15 03:46:45;;;;;;;;;4.75;4.75;;;;;31.16;51.32;98898.53;4995177;28;8844;-72
2021/04/15 03:49:20;;;;;;;;;7.75;7.75;;;;;31.18;51.25;98899.66;4988477;28;9657;-72
2021/04/15 03:51:55;;;;;;;;;7.00;7.00;;;;;31.26;51.64;98901.13;4971830;28;9559;-73
2021/04/15 03:54:30;;;;;;;;;7.75;7.75;;;;;31.30;51.43;98895.66;4990102;28;8833;-72
2021/04/15 03:57:01;;;;;;;;;7.25;7.25;;;;;31.36;50.61;98891.31;4988640;28;8824;-71
2021/04/15 03:59:47;;;;;;;;;10.75;10.75;;;;;31.50;50.77;98895.88;4988804;28;8864;-71
2021/04/15 04:02:31;;;;;;;;;18.00;18.00;;;;;31.62;50.18;98889.94;4987608;28;8906;-71
2021/04/15 04:05:06;;;;;;;;;17.25;17.25;;;;;31.67;49.26;98878.59;4981741;28;8830;-71
2021/04/15 04:07:41;;;;;;;;;15.00;15.00;;;;;31.75;49.48;98880.88;4989958;28;8866;-71
2021/04/15 04:10:24;;;;;;;;;13.25;13.25;;;;;31.89;48.86;98881.91;4981718;28;8900;-71
2021/04/15 04:13:16;;;;;;;;;12.25;12.25;;;;;31.96;49.77;98874.41;4981407;28;8946;-70
2021/04/15 04:16:23;;;;;;;;;10.50;10.50;;;;;31.58;50.13;98805.44;4986973;28;8890;-71
2021/04/15 04:19:12;;;;;;;;;11.00;11.00;;;;;32.16;48.69;98876.53;4990320;28;8886;-71
2021/04/15 04:22:06;;;;;;;;;10.25;9.25;;;;;32.27;49.95;98869.78;4987074;28;8824;-72
2021/04/15 04:24:55;;;;;;;;;10.00;10.00;;;;;32.35;49.40;98868.53;4991249;28;8836;-72
2021/04/15 04:27:41;;;;;;;;;0.25;0.25;;;;;31.99;50.01;98819.03;4988661;28;8851;-72
2021/04/15 04:30:33;;;;;;;;;8.75;8.75;;;;;32.40;48.77;98867.28;4988007;28;8895;-72
2021/04/15 04:33:05;;;;;;;;;8.25;8.25;;;;;32.46;48.02;98859.41;4985141;28;8918;-73
2021/04/15 04:35:41;;;;;;;;;9.50;9.50;;;;;32.54;48.26;98852.66;4974594;28;8915;-72
2021/04/15 04:38:20;;;;;;;;;8.00;8.00;;;;;32.67;48.61;98851.69;4987280;28;8840;-73
2021/04/15 04:40:56;;;;;;;;;7.25;7.25;;;;;32.79;47.79;98849.59;4990454;28;8840;-73
2021/04/15 04:43:40;;;;;;;;;7.50;7.50;;;;;32.79;49.64;98830.47;4986500;28;8864;-72
2021/04/15 04:46:33;;;;;;;;;8.00;8.00;;;;;32.85;48.05;98834.28;4990898;28;8851;-73
2021/04/15 04:49:14;;;;;;;;;7.25;7.25;;;;;32.73;47.33;98811.78;4989601;28;8848;-73
2021/04/15 04:52:01;;;;;;;;;7.00;7.00;;;;;32.83;47.65;98823.00;4988338;28;8850;-72
2021/04/15 04:54:29;;;;;;;;;8.25;8.25;;;;;32.88;48.41;98819.78;4990355;28;8885;-73
2021/04/15 04:57:14;;;;;;;;;6.50;6.50;;;;;32.85;47.58;98804.22;4989819;28;8916;-74
2021/04/15 04:59:58;;;;;;;;;10.25;10.25;;;;;33.01;47.88;98805.13;4982443;28;8956;-73
2021/04/15 05:02:26;;;;;;;;;7.25;7.25;;;;;33.00;48.48;98784.44;4986946;28;8856;-73
2021/04/15 05:05:09;;;;;;;;;6.75;6.75;;;;;33.14;47.79;98794.38;4977195;28;9710;-73
2021/04/15 05:07:39;;;;;;;;;7.25;6.75;;;;;33.16;48.13;98783.78;4983758;28;8853;-72
2021/04/15 05:10:08;;;;;;;;;10.25;10.25;;;;;33.15;45.65;98784.97;4981309;28;8874;-73
2021/04/15 05:12:36;;;;;;;;;6.75;6.75;;;;;33.08;45.73;98772.22;4988710;28;8898;-72
2021/04/15 05:15:06;;;;;;;;;6.25;6.25;;;;;33.18;46.40;98772.44;4989364;28;8844;-72
2021/04/15 05:17:38;;;;;;;;;6.75;6.75;;;;;33.28;48.06;98774.22;4992288;28;8883;-72
2021/04/15 05:20:16;;;;;;;;;7.20;7.00;;;;;33.37;46.58;98767.03;4975693;28;8851;-72
2021/04/15 05:23:18;;;;;;;;;7.80;7.80;;;;;33.42;48.58;98771.25;4985950;28;8860;-73
2021/04/15 05:26:15;;;;;;;;;7.50;7.50;;;;;33.38;46.03;98759.59;4989086;28;8859;-73
2021/04/15 05:28:46;;;;;;;;;7.50;7.50;;;;;33.41;46.01;98758.00;4991525;28;8927;-73
2021/04/15 05:31:18;;;;;;;;;6.80;6.80;;;;;33.52;45.23;98751.13;4991560;28;8839;-73
2021/04/15 05:33:47;;;;;;;;;7.40;7.40;;;;;33.71;44.72;98744.13;4971749;28;8863;-73
2021/04/15 05:36:31;;;;;;;;;7.20;7.20;;;;;33.90;46.26;98742.56;4983545;28;8822;-73
2021/04/15 05:39:03;;;;;;;;;8.75;8.75;;;;;34.03;44.42;98735.22;4978158;28;9642;-72
2021/04/15 05:41:58;;;;;;;;;9.80;7.20;;;;;34.27;44.40;98738.63;4987440;28;8978;-72
2021/04/15 05:44:48;;;;;;;;;7.80;7.80;;;;;34.41;45.67;98718.38;4986685;28;8942;-72
2021/04/15 05:47:26;;;;;;;;;7.00;7.00;;;;;34.60;46.98;98723.78;4974847;28;8829;-72
2021/04/15 05:50:32;;;;;;;;;8.25;8.25;;;;;34.66;46.71;98702.09;4973649;28;9526;-72
2021/04/15 05:53:11;;;;;;;;;5.40;5.40;;;;;34.58;44.90;98708.97;4988178;28;8943;-72
2021/04/15 05:56:07;;;;;;;;;6.20;6.20;;;;;34.60;43.56;98699.13;4987736;28;9632;-72
2021/04/15 05:59:01;;;;;;;;;7.40;7.40;;;;;34.70;43.89;98691.06;4988015;28;8840;-72
2021/04/15 06:02:05;;;;;;;;;6.20;6.20;;;;;34.77;43.97;98686.16;4990312;28;8856;-73
2021/04/15 06:04:43;;;;;;;;;8.40;8.40;;;;;34.75;46.24;98671.34;4987848;28;8870;-72
2021/04/15 06:07:21;;;;;;;;;3.20;3.20;;;;;34.81;46.59;98670.44;4988952;28;8939;-73
2021/04/15 06:09:50;;;;;;;;;6.80;6.80;;;;;34.80;44.70;98663.38;4989516;28;8986;-73
2021/04/15 06:12:39;;;;;;;;;7.80;7.80;;;;;34.75;46.17;98655.69;4985794;28;8871;-73
2021/04/15 06:15:15;;;;;;;;;7.80;7.00;;;;;34.66;46.10;98642.59;4992350;28;8832;-71
2021/04/15 06:18:17;;;;;;;;;5.60;5.60;;;;;34.51;46.16;98646.91;4987595;28;8871;-73
2021/04/15 06:20:54;;;;;;;;;10.20;10.20;;;;;34.41;44.63;98642.47;4977094;28;8830;-75
2021/04/15 06:23:40;;;;;;;;;8.20;8.20;;;;;34.26;46.74;98631.06;4973643;28;8889;-73
2021/04/15 06:26:27;;;;;;;;;6.40;6.40;;;;;34.17;45.53;98630.88;4985785;28;8844;-72
2021/04/15 06:29:04;;;;;;;;;8.40;8.40;;;;;34.09;46.15;98620.53;4974825;28;8867;-73
2021/04/15 06:31:40;;;;;;;;;7.80;7.80;;;;;34.13;46.63;98621.22;4993314;28;9755;-73
2021/04/15 06:34:10;;;;;;;;;6.20;6.20;;;;;34.15;46.57;98613.34;4991940;28;8890;-75
2021/04/15 06:36:55;;;;;;;;;7.60;7.60;;;;;34.16;45.18;98604.72;4989298;28;9666;-73
2021/04/15 06:39:39;;;;;;;;;8.00;8.00;;;;;34.28;46.46;98593.06;4991176;28;8841;-74
2021/04/15 06:42:28;;;;;;;;;8.20;8.20;;;;;34.41;45.27;98595.13;4991529;28;8910;-74
2021/04/15 06:45:36;;;;;;;;;8.40;8.40;;;;;34.43;45.64;98579.81;4972317;28;8852;-73
2021/04/15 06:48:24;;;;;;;;;8.00;7.20;;;;;34.48;45.73;98570.28;4972436;28;8830;-73
2021/04/15 06:51:18;;;;;;;;;7.80;7.80;;;;;34.49;46.16;98561.66;4990539;28;8882;-73
2021/04/15 06:54:10;;;;;;;;;7.20;7.20;;;;;34.44;45.85;98555.94;4991157;28;8898;-73
2021/04/15 06:57:04;;;;;;;;;8.00;8.00;;;;;34.33;45.89;98548.75;4989514;28;8844;-74
2021/04/15 06:59:57;;;;;;;;;6.80;6.80;;;;;34.32;45.25;98544.47;4989638;28;8856;-72
2021/04/15 07:02:57;;;;;;;;;7.00;7.00;;;;;34.14;46.36;98502.31;4992495;28;8872;-73
2021/04/15 07:05:30;;;;;;;;;7.00;7.00;;;;;34.35;44.11;98529.16;4992043;28;8910;-73
2021/04/15 07:08:07;;;;;;;;;7.20;7.20;;;;;34.46;44.42;98523.41;4992510;28;8860;-72
2021/04/15 07:11:00;;;;;;;;;8.60;8.60;;;;;34.64;43.27;98507.25;4992357;28;8855;-73
2021/04/15 07:14:00;;;;;;;;;7.80;7.80;;;;;34.91;44.27;98499.44;4992784;28;8852;-75
2021/04/15 07:16:57;;;;;;;;;7.00;6.20;;;;;35.20;43.24;98493.09;4991951;28;8852;-72
2021/04/15 07:20:04;;;;;;;;;7.40;7.40;;;;;35.45;42.82;98487.63;4991412;28;8930;-77
2021/04/15 07:23:11;;;;;;;;;6.20;6.20;;;;;35.62;42.13;98475.31;4991020;28;8856;-74
2021/04/15 07:26:04;;;;;;;;;7.60;7.60;;;;;35.63;43.95;98476.09;4990878;28;8918;-74
2021/04/15 07:29:04;;;;;;;;;6.40;6.20;;;;;35.52;44.70;98473.69;4989123;28;8832;-75
2021/04/15 07:32:07;;;;;;;;;7.20;7.20;;;;;35.42;44.81;98466.56;4989556;28;8860;-78
2021/04/15 07:35:00;;;;;;;;;7.80;7.80;;;;;35.30;42.17;98470.06;4990597;28;8856;-72
2021/04/15 07:38:01;;;;;;;;;6.00;6.00;;;;;35.23;44.46;98460.06;4989177;28;9744;-73
2021/04/15 07:41:01;;;;;;;;;4.80;4.80;;;;;35.21;45.03;98453.50;4989570;28;8990;-74
2021/04/15 07:43:58;;;;;;;;;7.80;7.80;;;;;35.16;44.74;98454.81;4988501;28;8844;-74
2021/04/15 07:46:53;;;;;;;;;7.20;7.20;;;;;35.04;44.17;98436.41;4972735;28;8918;-74
2021/04/15 07:50:01;;;;;;;;;8.40;8.40;;;;;34.97;44.30;98433.91;4987847;28;8860;-73
2021/04/15 07:53:03;;;;;;;;;7.20;7.20;;;;;35.06;42.23;98438.72;4989937;28;8836;-74
2021/04/15 07:56:11;;;;;;;;;6.00;6.00;;;;;35.10;44.71;98426.44;4990010;28;8938;-75
2021/04/15 07:59:07;;;;;;;;;8.80;8.80;;;;;35.12;43.74;98409.53;4989983;28;8854;-72
2021/04/15 08:02:08;;;;;;;;;8.60;8.60;;;;;35.26;44.50;98415.31;4988908;28;8852;-72
2021/04/15 08:05:06;;;;;;;;;7.80;7.80;;;;;35.28;44.03;98410.16;4990426;28;8906;-73
2021/04/15 08:08:05;;;;;;;;;5.60;5.60;;;;;35.36;43.84;98402.50;4989827;28;8832;-73
2021/04/15 08:11:13;;;;;;;;;6.80;6.80;;;;;35.39;43.52;98395.38;4989917;28;8859;-73
2021/04/15 08:14:06;;;;;;;;;7.80;7.80;;;;;35.37;43.73;98397.78;4988131;28;8844;-72
2021/04/15 08:17:03;;;;;;;;;9.40;9.40;;;;;35.23;42.32;98385.28;4987344;28;9689;-73
2021/04/15 08:20:03;;;;;;;;;10.40;10.40;;;;;35.16;42.71;98380.78;4988877;28;8856;-74
2021/04/15 08:23:03;;;;;;;;;4.80;4.80;;;;;35.15;42.72;98378.47;4989777;28;8847;-73
2021/04/15 08:26:10;;;;;;;;;8.80;8.80;;;;;35.12;42.84;98382.09;4988136;28;8913;-72
2021/04/15 08:29:03;;;;;;;;;8.20;7.40;;;;;35.07;42.45;98371.72;4975259;28;8980;-71
2021/04/15 08:31:50;;;;;;;;;7.20;7.20;;;;;34.98;43.41;98373.16;4977012;28;8917;-71
2021/04/15 08:34:57;;;;;;;;;7.00;6.80;;;;;34.88;41.92;98370.75;4968636;28;8958;-71
2021/04/15 08:37:47;;;;;;;;;8.60;8.60;;;;;34.84;41.65;98372.81;4981641;28;8867;-73
2021/04/15 08:40:29;;;;;;;;;8.40;8.40;;;;;34.88;41.59;98365.25;4988257;28;8887;-72
2021/04/15 08:43:22;;;;;;;;;4.80;4.80;;;;;35.03;41.36;98371.84;4990266;28;8836;-72
2021/04/15 08:46:08;;;;;;;;;6.60;6.60;;;;;35.15;41.69;98365.53;4975507;28;8864;-73
2021/04/15 08:49:00;;;;;;;;;6.40;6.40;;;;;35.26;42.61;98365.19;4992210;28;9691;-72
2021/04/15 08:52:17;;;;;;;;;6.80;6.80;;;;;35.36;42.83;98371.56;4989500;28;8860;-71
2021/04/15 08:54:58;;;;;;;;;8.60;7.00;;;;;35.28;43.08;98360.81;4992102;28;8880;-74
2021/04/15 08:57:51;;;;;;;;;10.20;8.40;;;;;35.36;40.68;98366.09;4990994;28;9558;-74
2021/04/15 09:00:51;;;;;;;;;5.00;5.00;;;;;35.36;42.38;98358.63;4973651;28;8836;-73
2021/04/15 09:03:54;;;;;;;;;5.00;5.00;;;;;35.46;43.74;98352.00;4991139;28;8839;-73
2021/04/15 09:06:38;;;;;;;;;8.00;8.00;;;;;35.37;43.43;98349.19;4990525;28;8848;-72
2021/04/15 09:09:40;;;;;;;;;6.20;6.20;;;;;35.33;42.52;98347.78;4973216;28;8843;-74
2021/04/15 09:12:48;;;;;;;;;9.20;7.80;;;;;35.33;42.51;98354.03;4971656;28;9946;-73
2021/04/15 09:15:50;;;;;;;;;7.00;7.00;;;;;35.32;43.01;98363.47;4989791;28;8941;-75
2021/04/15 09:18:40;;;;;;;;;7.60;6.80;;;;;35.40;43.27;98370.25;4991391;28;8840;-72
2021/04/15 09:21:36;;;;;;;;;6.80;6.80;;;;;35.42;42.45;98367.81;4973320;28;10001;-71
2021/04/15 09:24:40;;;;;;;;;6.20;6.20;;;;;35.41;40.31;98376.50;4988349;28;8894;-73
2021/04/15 09:27:26;;;;;;;;;10.20;10.20;;;;;35.44;43.32;98379.13;4973125;28;8866;-71
2021/04/15 09:30:28;;;;;;;;;13.00;12.80;;;;;35.37;42.90;98367.63;4973748;28;8840;-71
2021/04/15 09:33:21;;;;;;;;;10.60;9.60;;;;;35.30;42.76;98366.63;4990702;28;8962;-74
2021/04/15 09:36:13;;;;;;;;;6.60;6.60;;;;;35.23;41.48;98355.88;4991836;28;8824;-74
2021/04/15 09:39:12;;;;;;;;;7.60;7.60;;;;;35.22;42.38;98351.59;4991806;28;8922;-73
2021/04/15 09:42:13;;;;;;;;;7.60;7.60;;;;;35.20;42.75;98356.75;4989183;28;9589;-74
2021/04/15 09:44:59;;;;;;;;;7.60;7.60;;;;;35.14;42.92;98355.78;4989252;28;8860;-72
2021/04/15 09:47:52;;;;;;;;;7.60;7.60;;;;;35.09;42.77;98355.59;4971629;28;8876;-72
2021/04/15 09:50:51;;;;;;;;;6.60;6.60;;;;;35.00;42.84;98348.03;4990526;28;8858;-75
2021/04/15 09:53:44;;;;;;;;;7.00;7.00;;;;;34.99;42.26;98355.50;4990271;28;8852;-72
2021/04/15 09:56:51;;;;;;;;;7.00;7.00;;;;;34.94;41.53;98360.75;4988388;28;9597;-75
2021/04/15 09:59:51;;;;;;;;;6.60;6.60;;;;;34.86;42.48;98368.44;4991849;28;8974;-75
2021/04/15 10:02:37;;;;;;;;;6.20;6.20;;;;;34.77;42.10;98373.00;4972463;28;9546;-73
2021/04/15 10:05:13;;;;;;;;;6.80;6.80;;;;;34.72;42.67;98388.03;4989584;28;8914;-73
2021/04/15 10:07:51;;;;;;;;;6.80;6.80;;;;;34.59;42.57;98368.84;4989913;28;8922;-72
2021/04/15 10:10:49;;;;;;;;;6.60;6.60;;;;;34.51;43.11;98373.00;4989632;28;8836;-72
2021/04/15 10:13:46;;;;;;;;;7.20;7.20;;;;;34.44;42.67;98384.16;4992224;28;8844;-73
2021/04/15 10:16:27;;;;;;;;;6.00;6.00;;;;;34.32;44.01;98382.94;4990871;28;8934;-72
2021/04/15 10:19:32;;;;;;;;;8.20;8.20;;;;;34.24;43.96;98383.53;4992312;28;8918;-72
2021/04/15 10:22:32;;;;;;;;;5.00;5.00;;;;;33.93;43.68;98367.56;4990359;28;8860;-72
2021/04/15 10:25:24;;;;;;;;;6.60;6.60;;;;;33.99;43.69;98393.19;4988488;28;8901;-72
2021/04/15 10:28:26;;;;;;;;;6.60;6.60;;;;;33.89;43.38;98397.00;4992389;28;8833;-72
2021/04/15 10:31:33;;;;;;;;;5.80;5.80;;;;;33.85;42.98;98395.53;4991715;28;8866;-73
2021/04/15 10:34:33;;;;;;;;;7.00;7.00;;;;;33.84;43.10;98399.47;4992239;28;8816;-73
2021/04/15 10:37:32;;;;;;;;;7.60;7.60;;;;;33.83;43.84;98406.16;4987256;28;8836;-72
2021/04/15 10:40:35;;;;;;;;;6.40;6.40;;;;;33.75;44.30;98402.81;4981110;28;8960;-73
2021/04/15 10:43:35;;;;;;;;;5.80;5.80;;;;;33.65;43.61;98401.13;4993192;28;8959;-73
2021/04/15 10:46:44;;;;;;;;;8.40;8.40;;;;;33.56;44.12;98404.47;4993371;28;9643;-74
2021/04/15 10:49:37;;;;;;;;;8.00;8.00;;;;;33.48;44.65;98405.09;4993747;28;8883;-74
2021/04/15 10:52:30;;;;;;;;;6.00;6.00;;;;;33.39;44.42;98403.72;4993698;28;8918;-73
2021/04/15 10:55:22;;;;;;;;;7.60;7.60;;;;;33.31;44.50;98410.56;4993221;28;8860;-73
2021/04/15 10:57:52;;;;;;;;;7.00;7.00;;;;;33.23;44.52;98409.16;4993628;28;8903;-73
2021/04/15 11:00:34;;;;;;;;;8.60;7.60;;;;;33.20;44.78;98409.25;4993285;28;8856;-73
2021/04/15 11:03:18;;;;;;;;;6.80;6.80;;;;;33.16;44.81;98414.78;4993934;28;8948;-73
2021/04/15 11:05:54;;;;;;;;;6.40;6.00;;;;;33.14;44.86;98427.34;4992904;28;8878;-73
2021/04/15 11:08:31;;;;;;;;;7.80;7.80;;;;;33.10;44.58;98421.97;4993125;28;8828;-73
2021/04/15 11:11:16;;;;;;;;;5.75;5.75;;;;;33.07;45.21;98429.03;4992281;28;8832;-73
2021/04/15 11:13:49;;;;;;;;;6.50;6.50;;;;;32.97;45.32;98419.13;4974035;28;8862;-73
2021/04/15 11:16:20;;;;;;;;;7.25;7.25;;;;;32.83;45.41;98413.19;4974007;28;8846;-72
2021/04/15 11:18:50;;;;;;;;;6.40;6.40;;;;;32.95;45.43;98448.81;4957046;28;8856;-72
2021/04/15 11:21:38;;;;;;;;;6.00;6.00;;;;;32.96;45.61;98452.34;4973866;28;8862;-72
2021/04/15 11:24:34;;;;;;;;;8.50;8.50;;;;;32.96;46.04;98460.53;4973817;28;8932;-73
2021/04/15 11:27:09;;;;;;;;;9.20;8.20;;;;;32.94;45.59;98458.22;4973775;28;8964;-72
2021/04/15 11:29:45;;;;;;;;;6.80;6.80;;;;;32.95;45.69;98459.75;4988698;28;8910;-72
2021/04/15 11:32:42;;;;;;;;;8.00;8.00;;;;;32.94;46.26;98465.66;4992036;28;8836;-73
2021/04/15 11:35:29;;;;;;;;;9.00;9.00;;;;;32.85;46.17;98465.44;4993095;28;8836;-72
2021/04/15 11:38:25;;;;;;;;;8.50;8.50;;;;;32.93;46.40;98477.78;4991052;28;9577;-73
2021/04/15 11:40:54;;;;;;;;;8.00;8.00;;;;;32.91;46.71;98474.69;4973178;28;8860;-72
2021/04/15 11:43:37;;;;;;;;;6.00;6.00;;;;;32.93;46.91;98475.81;4988758;28;9656;-73
2021/04/15 11:46:33;;;;;;;;;7.00;7.00;;;;;32.91;46.61;98485.63;4988851;28;8922;-72
2021/04/15 11:49:25;;;;;;;;;7.80;7.80;;;;;32.87;46.70;98477.50;4990272;28;8828;-72
2021/04/15 11:52:06;;;;;;;;;7.75;7.75;;;;;32.90;46.60;98486.81;4989010;28;8877;-74
2021/04/15 11:54:38;;;;;;;;;10.75;8.75;;;;;32.88;46.55;98489.97;4971659;28;8838;-73
2021/04/15 11:57:38;;;;;;;;;9.00;9.00;;;;;32.88;46.51;98497.38;4989014;28;8864;-73
2021/04/15 12:00:14;;;;;;;;;6.75;6.75;;;;;32.84;45.99;98493.97;4988825;28;8844;-72
2021/04/15 12:03:07;;;;;;;;;7.75;7.75;;;;;32.85;46.18;98498.22;4971982;28;8860;-72
2021/04/15 12:05:42;;;;;;;;;9.00;9.00;;;;;32.78;46.55;98504.63;4987530;28;8832;-72
2021/04/15 12:08:23;;;;;;;;;9.75;9.75;;;;;32.81;46.21;98516.66;4989611;28;9585;-73
2021/04/15 12:11:34;;;;;;;;;10.00;10.00;;;;;32.76;46.70;98520.66;4989746;28;9600;-73
2021/04/15 12:14:10;;;;;;;;;9.50;9.50;;;;;32.79;47.15;98530.75;4989622;28;8851;-73
2021/04/15 12:17:17;;;;;;;;;9.75;9.75;;;;;32.81;47.03;98539.28;4987293;28;8843;-73
2021/04/15 12:20:24;;;;;;;;;7.00;7.00;;;;;32.82;46.77;98546.28;4989918;28;8937;-73
2021/04/15 12:23:15;;;;;;;;;13.00;12.00;;;;;32.78;46.48;98544.81;4973215;28;9601;-72
2021/04/15 12:25:58;;;;;;;;;12.50;11.25;;;;;32.77;46.13;98540.53;4987209;28;8882;-72
2021/04/15 12:28:51;;;;;;;;;11.75;10.50;;;;;32.81;46.15;98555.69;4989336;28;8836;-72
2021/04/15 12:31:36;;;;;;;;;11.75;11.75;;;;;32.80;45.69;98562.34;4986310;28;10773;-73
2021/04/15 12:34:33;;;;;;;;;11.25;11.25;;;;;32.81;45.52;98557.63;4988748;28;8902;-73
2021/04/15 12:37:16;;;;;;;;;12.25;12.25;;;;;32.71;45.36;98546.47;4988696;28;8844;-72
2021/04/15 12:40:13;;;;;;;;;13.25;13.25;;;;;32.80;45.49;98575.22;4989192;28;8856;-73
2021/04/15 12:42:44;;;;;;;;;11.50;11.50;;;;;32.75;45.99;98568.25;4971585;28;8836;-72
2021/04/15 12:45:22;;;;;;;;;13.25;13.25;;;;;32.74;45.86;98569.44;4988350;28;8816;-73
2021/04/15 12:47:53;;;;;;;;;13.00;12.00;;;;;32.72;45.42;98569.88;4986902;28;8963;-72
2021/04/15 12:50:27;;;;;;;;;10.25;10.25;;;;;32.75;45.83;98574.50;4987652;28;8942;-73
2021/04/15 12:52:58;;;;;;;;;10.50;10.25;;;;;32.65;45.21;98570.00;4986576;28;8859;-72
2021/04/15 12:55:29;;;;;;;;;12.75;12.75;;;;;32.74;45.20;98592.06;4987633;28;10578;-72
2021/04/15 12:58:00;;;;;;;;;10.25;10.25;;;;;32.72;44.98;98588.97;4984602;28;9621;-73
2021/04/15 13:00:41;;;;;;;;;12.00;11.50;;;;;32.50;44.43;98565.25;4971240;28;8828;-72
2021/04/15 13:03:24;;;;;;;;;18.25;18.25;;;;;32.69;45.40;98592.53;4972199;28;8919;-73
2021/04/15 13:06:17;;;;;;;;;9.75;9.75;;;;;32.67;45.08;98591.44;4989517;28;8958;-73